createdAt,value
2023-03-29T00:00:40.726Z,66.90
2023-03-29T00:01:50.363Z,66.89
2023-03-29T00:04:17.755Z,67.20
2023-03-29T00:05:27.004Z,67.27
2023-03-29T00:07:53.391Z,67.31
2023-03-29T00:10:25.916Z,66.80
2023-03-29T00:11:35.264Z,67.20
2023-03-29T00:13:59.951Z,66.85
2023-03-29T00:16:26.425Z,66.81
2023-03-29T00:17:36.242Z,67.05
2023-03-29T00:18:46.252Z,67.46
2023-03-29T00:19:55.694Z,67.56
2023-03-29T00:22:22.857Z,67.58
2023-03-29T00:23:32.237Z,67.51
2023-03-29T00:24:41.505Z,67.37
2023-03-29T00:27:06.656Z,67.12
2023-03-29T00:29:33.927Z,67.23
2023-03-29T00:31:58.637Z,66.43
2023-03-29T00:33:09.615Z,65.74
2023-03-29T00:35:35.602Z,66.15
2023-03-29T00:38:00.002Z,66.72
2023-03-29T00:39:09.634Z,66.60
2023-03-29T00:41:35.481Z,66.94
2023-03-29T00:44:04.209Z,65.98
2023-03-29T00:46:36.229Z,66.14
2023-03-29T00:49:15.583Z,65.84
2023-03-29T00:50:31.597Z,66.01
2023-03-29T00:53:08.985Z,65.87
2023-03-29T00:55:38.981Z,65.53
2023-03-29T00:56:51.792Z,65.50
2023-03-29T00:58:04.152Z,65.33
2023-03-29T01:00:52.810Z,65.16
2023-03-29T01:03:26.853Z,65.94
2023-03-29T01:04:46.456Z,65.38
2023-03-29T01:07:23.232Z,65.77
2023-03-29T01:11:25.301Z,65.23
2023-03-29T01:14:00.945Z,65.09
2023-03-29T01:15:15.392Z,65.11
2023-03-29T01:17:45.735Z,64.93
2023-03-29T01:20:42.046Z,65.55
2023-03-29T01:24:58.376Z,65.85
2023-03-29T01:26:23.312Z,65.48
2023-03-29T01:29:04.075Z,65.03
2023-03-29T01:31:37.508Z,64.84
2023-03-29T01:34:15.118Z,65.19
2023-03-29T01:35:34.156Z,65.23
2023-03-29T01:37:03.961Z,65.23
2023-03-29T01:39:38.128Z,64.98
2023-03-29T01:42:13.619Z,65.16
2023-03-29T01:45:17.020Z,65.05
2023-03-29T01:48:17.138Z,64.87
2023-03-29T01:49:27.804Z,64.67
2023-03-29T01:50:54.591Z,65.17
2023-03-29T01:55:08.490Z,64.80
2023-03-29T01:56:26.375Z,65.15
2023-03-29T01:58:57.758Z,64.51
2023-03-29T02:01:31.987Z,64.91
2023-03-29T02:04:04.151Z,65.05
2023-03-29T02:05:17.043Z,64.96
2023-03-29T02:07:46.996Z,64.38
2023-03-29T02:08:57.806Z,64.48
2023-03-29T02:11:26.878Z,64.40
2023-03-29T02:14:10.643Z,64.20
2023-03-29T02:16:38.478Z,64.73
2023-03-29T02:19:07.838Z,64.83
2023-03-29T02:21:51.222Z,64.80
2023-03-29T02:23:18.625Z,64.84
2023-03-29T02:25:54.043Z,64.43
2023-03-29T02:28:22.697Z,64.21
2023-03-29T02:29:33.851Z,64.39
2023-03-29T02:31:04.873Z,64.57
2023-03-29T02:35:19.788Z,64.64
2023-03-29T02:38:00.236Z,65.05
2023-03-29T02:39:14.590Z,64.70
2023-03-29T02:42:03.634Z,64.95
2023-03-29T02:44:36.000Z,64.77
2023-03-29T02:47:08.478Z,65.09
2023-03-29T02:49:36.360Z,64.50
2023-03-29T02:52:17.127Z,64.49
2023-03-29T02:54:55.777Z,64.22
2023-03-29T02:57:42.978Z,64.31
2023-03-29T03:00:09.677Z,64.39
2023-03-29T03:02:37.081Z,64.26
2023-03-29T03:03:50.969Z,64.40
2023-03-29T03:06:14.950Z,64.13
2023-03-29T03:07:24.866Z,64.05
2023-03-29T03:09:52.585Z,64.47
2023-03-29T03:11:03.059Z,64.50
2023-03-29T03:12:13.251Z,64.35
2023-03-29T03:14:37.463Z,64.61
2023-03-29T03:15:48.929Z,64.25
2023-03-29T03:16:58.958Z,64.51
2023-03-29T03:19:25.489Z,64.63
2023-03-29T03:21:51.949Z,64.45
2023-03-29T03:24:18.944Z,64.36
2023-03-29T03:26:45.503Z,64.38
2023-03-29T03:27:55.098Z,64.61
2023-03-29T03:29:05.321Z,63.90
2023-03-29T03:31:53.797Z,64.59
2023-03-29T03:34:36.953Z,64.84
2023-03-29T03:37:05.442Z,64.36
2023-03-29T03:39:33.288Z,64.49
2023-03-29T03:41:59.206Z,64.62
2023-03-29T03:44:25.641Z,64.33
2023-03-29T03:46:56.892Z,64.16
2023-03-29T03:49:22.305Z,64.13
2023-03-29T03:50:32.579Z,64.20
2023-03-29T03:51:44.234Z,64.41
2023-03-29T03:52:53.219Z,64.05
2023-03-29T03:54:04.064Z,64.09
2023-03-29T03:56:31.554Z,64.02
2023-03-29T03:57:48.019Z,64.05
2023-03-29T04:00:20.618Z,63.72
2023-03-29T04:03:05.372Z,64.09
2023-03-29T04:04:16.813Z,64.02
2023-03-29T04:07:03.461Z,63.93
2023-03-29T04:09:31.759Z,63.99
2023-03-29T04:11:31.662Z,64.30
2023-03-29T04:12:41.250Z,64.19
2023-03-29T04:13:50.611Z,63.95
2023-03-29T04:16:58.184Z,63.57
2023-03-29T04:20:14.839Z,63.67
2023-03-29T04:22:59.094Z,63.73
2023-03-29T04:24:09.309Z,63.31
2023-03-29T04:25:21.858Z,63.41
2023-03-29T04:27:50.823Z,63.14
2023-03-29T04:30:58.575Z,64.03
2023-03-29T04:32:56.723Z,63.84
2023-03-29T04:35:23.926Z,63.56
2023-03-29T04:36:32.714Z,63.39
2023-03-29T04:39:00.186Z,63.48
2023-03-29T04:41:30.615Z,63.53
2023-03-29T04:42:46.310Z,63.61
2023-03-29T04:43:56.138Z,63.42
2023-03-29T04:45:10.408Z,63.75
2023-03-29T04:47:42.969Z,63.58
2023-03-29T04:48:53.718Z,63.37
2023-03-29T04:50:07.474Z,63.04
2023-03-29T04:51:22.259Z,63.54
2023-03-29T04:53:57.534Z,63.47
2023-03-29T04:56:27.109Z,63.05
2023-03-29T04:59:26.782Z,62.66
2023-03-29T05:00:42.377Z,63.21
2023-03-29T05:03:12.181Z,63.70
2023-03-29T05:04:22.841Z,63.07
2023-03-29T05:06:49.610Z,63.45
2023-03-29T05:09:13.330Z,63.33
2023-03-29T05:11:42.578Z,62.98
2023-03-29T05:14:09.428Z,63.02
2023-03-29T05:15:21.241Z,62.78
2023-03-29T05:17:46.735Z,62.89
2023-03-29T05:20:18.101Z,62.96
2023-03-29T05:22:43.160Z,63.20
2023-03-29T05:25:14.196Z,63.12
2023-03-29T05:27:42.442Z,62.81
2023-03-29T05:30:10.062Z,62.60
2023-03-29T05:33:03.151Z,63.21
2023-03-29T05:35:29.631Z,63.41
2023-03-29T05:37:56.258Z,62.74
2023-03-29T05:40:25.640Z,62.86
2023-03-29T05:42:53.226Z,62.68
2023-03-29T05:45:17.618Z,62.72
2023-03-29T05:46:27.377Z,62.62
2023-03-29T05:47:38.826Z,62.17
2023-03-29T05:48:47.461Z,62.59
2023-03-29T05:51:14.289Z,63.11
2023-03-29T05:52:24.449Z,62.92
2023-03-29T05:54:48.802Z,63.14
2023-03-29T05:57:13.562Z,63.02
2023-03-29T05:59:41.169Z,62.96
2023-03-29T06:02:06.572Z,63.29
2023-03-29T06:04:38.260Z,63.48
2023-03-29T06:06:10.256Z,63.14
2023-03-29T06:07:19.271Z,63.46
2023-03-29T06:09:47.310Z,63.21
2023-03-29T06:12:21.555Z,62.77
2023-03-29T06:13:38.353Z,63.61
2023-03-29T06:14:48.370Z,63.50
2023-03-29T06:17:40.595Z,63.49
2023-03-29T06:18:52.179Z,63.22
2023-03-29T06:20:02.019Z,63.47
2023-03-29T06:22:28.107Z,63.54
2023-03-29T06:23:37.257Z,63.50
2023-03-29T06:24:46.612Z,63.34
2023-03-29T06:25:59.586Z,62.71
2023-03-29T06:27:10.764Z,63.06
2023-03-29T06:28:21.532Z,63.40
2023-03-29T06:29:31.599Z,63.30
2023-03-29T06:30:43.274Z,63.57
2023-03-29T06:31:56.652Z,63.58
2023-03-29T06:33:14.744Z,63.44
2023-03-29T06:35:49.239Z,63.28
2023-03-29T06:37:01.343Z,63.38
2023-03-29T06:38:10.729Z,62.98
2023-03-29T06:41:25.390Z,62.91
2023-03-29T06:43:55.038Z,62.84
2023-03-29T06:47:32.340Z,63.10
2023-03-29T06:48:41.137Z,63.06
2023-03-29T06:51:06.940Z,62.67
2023-03-29T06:52:16.799Z,63.03
2023-03-29T06:53:28.162Z,63.03
2023-03-29T06:54:39.193Z,62.74
2023-03-29T06:57:05.984Z,62.44
2023-03-29T06:58:17.049Z,62.67
2023-03-29T07:00:41.732Z,62.26
2023-03-29T07:42:04.488Z,62.38
2023-03-29T07:43:14.311Z,62.20
2023-03-29T07:44:23.244Z,61.87
2023-03-29T07:45:36.315Z,62.30
2023-03-29T07:48:06.923Z,62.36
2023-03-29T07:50:46.648Z,62.54
2023-03-29T07:53:12.115Z,61.79
2023-03-29T07:55:36.187Z,61.90
2023-03-29T07:57:31.261Z,61.18
2023-03-29T07:59:56.118Z,61.98
2023-03-29T08:01:08.365Z,61.66
2023-03-29T08:04:23.041Z,61.91
2023-03-29T08:05:52.066Z,61.97
2023-03-29T08:08:17.859Z,61.98
2023-03-29T08:10:50.370Z,62.23
2023-03-29T08:12:19.250Z,62.26
2023-03-29T08:13:30.261Z,62.44
2023-03-29T08:16:13.180Z,61.98
2023-03-29T08:18:40.992Z,62.16
2023-03-29T08:21:07.002Z,62.26
2023-03-29T08:23:31.591Z,62.57
2023-03-29T08:24:50.902Z,61.89
2023-03-29T08:27:17.155Z,62.24
2023-03-29T08:29:41.580Z,62.53
2023-03-29T08:32:06.714Z,62.45
2023-03-29T08:33:27.558Z,62.18
2023-03-29T08:34:38.100Z,62.13
2023-03-29T08:36:07.976Z,61.67
2023-03-29T08:37:19.589Z,61.75
2023-03-29T08:39:45.796Z,62.25
2023-03-29T08:43:13.915Z,62.30
2023-03-29T08:46:37.339Z,62.34
2023-03-29T08:49:26.679Z,62.65
2023-03-29T08:52:04.114Z,62.39
2023-03-29T08:54:43.095Z,62.32
2023-03-29T08:55:55.828Z,62.72
2023-03-29T08:59:28.585Z,62.83
2023-03-29T09:02:04.040Z,62.63
2023-03-29T09:04:52.931Z,62.34
2023-03-29T09:07:56.658Z,62.54
2023-03-29T09:09:11.895Z,61.83
2023-03-29T09:10:28.624Z,61.93
2023-03-29T09:11:44.262Z,61.73
2023-03-29T09:16:30.684Z,61.95
2023-03-29T09:19:23.228Z,61.40
2023-03-29T09:22:21.950Z,61.29
2023-03-29T09:23:55.884Z,61.45
2023-03-29T09:26:53.156Z,61.36
2023-03-29T09:29:45.390Z,61.39
2023-03-29T09:33:50.647Z,61.23
2023-03-29T09:36:46.804Z,61.83
2023-03-29T09:39:14.534Z,61.60
2023-03-29T09:42:03.585Z,61.41
2023-03-29T09:44:54.330Z,61.23
2023-03-29T09:47:50.553Z,60.94
2023-03-29T09:50:30.740Z,60.95
2023-03-29T09:54:18.954Z,61.00
2023-03-29T09:55:50.329Z,60.67
2023-03-29T09:57:21.803Z,60.78
2023-03-29T09:58:31.109Z,61.17
2023-03-29T09:59:41.418Z,61.01
2023-03-29T10:02:13.453Z,61.23
2023-03-29T10:04:42.584Z,60.93
2023-03-29T10:05:56.537Z,61.23
2023-03-29T10:07:08.271Z,61.02
2023-03-29T10:09:47.574Z,61.62
2023-03-29T10:12:17.227Z,61.62
2023-03-29T10:14:54.026Z,61.07
2023-03-29T10:17:26.493Z,61.46
2023-03-29T10:18:43.179Z,61.76
2023-03-29T10:21:15.236Z,61.55
2023-03-29T10:22:27.163Z,61.05
2023-03-29T10:23:38.176Z,61.50
2023-03-29T10:24:52.968Z,61.24
2023-03-29T10:27:31.152Z,61.22
2023-03-29T10:29:58.300Z,61.12
2023-03-29T10:32:35.593Z,61.29
2023-03-29T10:35:14.304Z,60.79
2023-03-29T10:36:27.058Z,61.04
2023-03-29T10:39:06.267Z,60.86
2023-03-29T10:41:53.660Z,61.26
2023-03-29T10:44:36.440Z,60.75
2023-03-29T10:45:52.082Z,60.92
2023-03-29T10:48:28.871Z,60.64
2023-03-29T10:51:02.283Z,61.14
2023-03-29T10:53:33.585Z,61.11
2023-03-29T10:56:22.899Z,61.46
2023-03-29T10:59:24.995Z,61.68
2023-03-29T11:02:19.029Z,61.38
2023-03-29T11:03:50.533Z,61.36
2023-03-29T11:05:27.108Z,61.09
2023-03-29T11:08:20.177Z,60.33
2023-03-29T11:12:59.897Z,60.63
2023-03-29T11:16:16.670Z,60.55
2023-03-29T11:17:54.528Z,60.82
2023-03-29T11:20:36.386Z,60.23
2023-03-29T11:23:28.823Z,60.25
2023-03-29T11:24:53.239Z,59.62
2023-03-29T11:27:50.613Z,59.94
2023-03-29T11:30:50.997Z,59.66
2023-03-29T11:32:36.298Z,59.43
2023-03-29T11:37:00.932Z,59.18
2023-03-29T11:40:05.078Z,59.15
2023-03-29T11:41:18.202Z,59.72
2023-03-29T11:43:55.376Z,58.81
2023-03-29T11:45:08.218Z,58.88
2023-03-29T11:47:48.062Z,58.64
2023-03-29T11:50:42.111Z,59.59
2023-03-29T11:52:01.137Z,59.65
2023-03-29T11:53:14.324Z,59.57
2023-03-29T11:55:56.449Z,58.79
2023-03-29T11:58:32.120Z,58.59
2023-03-29T11:59:44.867Z,58.84
2023-03-29T12:02:20.643Z,57.87
2023-03-29T12:05:02.570Z,58.75
2023-03-29T12:06:41.876Z,58.60
2023-03-29T12:07:57.277Z,58.74
2023-03-29T12:09:19.082Z,58.61
2023-03-29T12:10:40.210Z,58.53
2023-03-29T12:11:51.571Z,58.86
2023-03-29T12:15:05.515Z,58.97
2023-03-29T12:16:33.487Z,59.10
2023-03-29T12:18:04.943Z,58.96
2023-03-29T12:21:05.248Z,58.96
2023-03-29T12:22:16.275Z,59.23
2023-03-29T12:23:29.456Z,59.04
2023-03-29T12:28:03.858Z,58.55
2023-03-29T12:30:41.881Z,58.09
2023-03-29T12:33:36.921Z,58.88
2023-03-29T12:37:01.854Z,58.80
2023-03-29T12:39:53.433Z,58.22
2023-03-29T12:42:57.218Z,58.48
2023-03-29T12:46:27.011Z,58.37
2023-03-29T12:49:01.936Z,58.21
2023-03-29T12:51:56.130Z,57.99
2023-03-29T12:53:27.240Z,57.87
2023-03-29T12:54:36.995Z,58.02
2023-03-29T12:56:11.148Z,58.05
2023-03-29T12:57:24.179Z,57.06
2023-03-29T12:58:42.419Z,57.75
2023-03-29T13:01:30.449Z,58.31
2023-03-29T13:02:41.670Z,58.00
2023-03-29T13:05:34.484Z,58.01
2023-03-29T13:08:30.435Z,58.09
2023-03-29T13:10:01.760Z,58.14
2023-03-29T13:12:54.564Z,57.61
2023-03-29T13:15:26.033Z,58.06
2023-03-29T13:18:00.712Z,58.39
2023-03-29T13:20:37.350Z,57.72
2023-03-29T13:23:31.768Z,57.89
2023-03-29T13:26:09.991Z,58.04
2023-03-29T13:27:42.851Z,57.64
2023-03-29T13:29:11.189Z,57.42
2023-03-29T13:32:23.644Z,57.44
2023-03-29T13:35:38.484Z,57.24
2023-03-29T13:38:24.965Z,57.33
2023-03-29T13:41:08.121Z,57.47
2023-03-29T13:42:21.284Z,57.50
2023-03-29T13:44:54.543Z,57.32
2023-03-29T13:47:30.077Z,57.21
2023-03-29T13:50:02.024Z,57.63
2023-03-29T13:52:40.311Z,56.70
2023-03-29T13:55:27.715Z,56.92
2023-03-29T13:58:08.619Z,57.14
2023-03-29T14:00:53.471Z,57.30
2023-03-29T14:03:25.362Z,57.09
2023-03-29T14:06:00.247Z,57.24
2023-03-29T14:07:13.796Z,57.38
2023-03-29T14:08:33.338Z,56.99
2023-03-29T14:11:03.931Z,57.15
2023-03-29T14:12:15.228Z,56.80
2023-03-29T14:13:26.004Z,57.41
2023-03-29T14:14:38.688Z,57.78
2023-03-29T14:15:56.943Z,58.07
2023-03-29T14:18:25.797Z,57.39
2023-03-29T14:20:55.629Z,56.96
2023-03-29T14:23:33.038Z,57.06
2023-03-29T14:26:18.507Z,57.15
2023-03-29T14:28:50.150Z,56.93
2023-03-29T14:29:59.624Z,56.95
2023-03-29T14:31:21.704Z,57.04
2023-03-29T14:32:32.644Z,57.19
2023-03-29T14:33:42.006Z,57.03
2023-03-29T14:36:11.635Z,56.67
2023-03-29T14:38:40.724Z,57.38
2023-03-29T14:41:06.903Z,56.82
2023-03-29T14:42:23.026Z,56.87
2023-03-29T14:43:35.850Z,56.81
2023-03-29T14:46:03.634Z,56.41
2023-03-29T14:48:37.542Z,56.63
2023-03-29T14:51:03.601Z,56.67
2023-03-29T14:52:15.268Z,56.61
2023-03-29T14:53:26.344Z,56.90
2023-03-29T14:55:56.050Z,57.02
2023-03-29T15:01:21.805Z,56.95
2023-03-29T15:04:08.550Z,56.85
2023-03-29T15:05:39.621Z,56.90
2023-03-29T15:08:31.735Z,57.16
2023-03-29T15:10:56.194Z,56.84
2023-03-29T15:12:05.377Z,57.02
2023-03-29T15:14:40.293Z,57.02
2023-03-29T15:17:42.629Z,56.96
2023-03-29T15:20:04.293Z,57.13
2023-03-29T15:22:32.880Z,57.44
2023-03-29T15:25:17.829Z,57.50
2023-03-29T15:27:51.961Z,57.50
2023-03-29T15:30:30.938Z,57.35
2023-03-29T15:31:42.584Z,57.24
2023-03-29T15:32:53.426Z,57.36
2023-03-29T15:34:09.291Z,57.63
2023-03-29T15:35:24.581Z,57.45
2023-03-29T15:37:52.909Z,57.10
2023-03-29T15:39:01.788Z,57.25
2023-03-29T15:41:32.540Z,56.93
2023-03-29T15:43:57.974Z,57.00
2023-03-29T15:46:25.006Z,57.34
2023-03-29T15:47:34.741Z,57.04
2023-03-29T15:48:43.446Z,56.79
2023-03-29T15:51:10.996Z,57.13
2023-03-29T15:53:38.082Z,57.15
2023-03-29T15:56:04.811Z,57.32
2023-03-29T15:58:33.526Z,57.41
2023-03-29T16:01:03.183Z,57.41
2023-03-29T16:03:30.924Z,57.14
2023-03-29T16:06:02.058Z,57.20
2023-03-29T16:07:17.273Z,57.34
2023-03-29T16:08:26.955Z,57.54
2023-03-29T16:09:37.592Z,57.43
2023-03-29T16:12:03.882Z,57.39
2023-03-29T16:14:30.996Z,57.57
2023-03-29T16:16:59.844Z,57.21
2023-03-29T16:18:10.898Z,57.49
2023-03-29T16:20:38.814Z,58.07
2023-03-29T16:21:49.601Z,58.17
2023-03-29T16:22:58.060Z,57.71
2023-03-29T16:24:13.197Z,57.77
2023-03-29T16:26:38.591Z,57.46
2023-03-29T16:29:03.189Z,57.79
2023-03-29T16:31:28.892Z,58.01
2023-03-29T16:32:38.814Z,57.75
2023-03-29T16:35:03.901Z,57.80
2023-03-29T16:37:29.158Z,58.07
2023-03-29T16:38:38.702Z,58.07
2023-03-29T16:41:04.191Z,57.86
2023-03-29T16:42:13.986Z,58.20
2023-03-29T16:43:22.825Z,58.46
2023-03-29T16:45:46.606Z,58.19
2023-03-29T16:48:17.799Z,58.24
2023-03-29T16:50:41.362Z,58.51
2023-03-29T16:51:51.201Z,58.41
2023-03-29T16:54:16.889Z,58.39
2023-03-29T16:56:41.065Z,58.54
2023-03-29T16:59:05.900Z,58.58
2023-03-29T17:01:36.933Z,58.49
2023-03-29T17:04:04.204Z,58.64
2023-03-29T17:06:28.521Z,58.64
2023-03-29T17:08:53.802Z,58.99
2023-03-29T17:10:06.969Z,58.74
2023-03-29T17:12:32.055Z,59.17
2023-03-29T17:14:57.256Z,58.64
2023-03-29T17:16:07.354Z,58.77
2023-03-29T17:18:33.085Z,58.80
2023-03-29T17:19:42.614Z,59.02
2023-03-29T17:20:54.945Z,58.91
2023-03-29T17:23:19.701Z,59.02
2023-03-29T17:24:28.969Z,58.88
2023-03-29T17:26:59.401Z,59.49
2023-03-29T17:28:08.201Z,59.35
2023-03-29T17:30:35.679Z,59.52
2023-03-29T17:31:48.045Z,59.65
2023-03-29T17:34:17.532Z,59.20
2023-03-29T17:36:41.308Z,59.26
2023-03-29T17:37:50.913Z,59.36
2023-03-29T17:40:17.449Z,59.20
2023-03-29T17:42:44.391Z,59.19
2023-03-29T17:45:11.824Z,58.99
2023-03-29T17:47:39.088Z,59.12
2023-03-29T17:50:08.222Z,59.58
2023-03-29T17:51:18.647Z,59.37
2023-03-29T17:53:43.220Z,59.09
2023-03-29T17:56:08.163Z,59.10
2023-03-29T17:57:17.223Z,59.34
2023-03-29T17:59:41.229Z,58.98
2023-03-29T18:02:05.640Z,59.34
2023-03-29T18:04:29.754Z,58.73
2023-03-29T18:05:38.486Z,58.67
2023-03-29T18:06:49.348Z,58.70
2023-03-29T18:07:59.148Z,58.48
2023-03-29T18:10:25.866Z,58.59
2023-03-29T18:12:53.813Z,58.45
2023-03-29T18:15:20.343Z,58.48
2023-03-29T18:17:45.409Z,58.41
2023-03-29T18:20:12.204Z,58.53
2023-03-29T18:21:22.673Z,58.74
2023-03-29T18:23:51.224Z,58.61
2023-03-29T18:26:16.420Z,58.55
2023-03-29T18:28:47.664Z,58.92
2023-03-29T18:29:59.169Z,58.70
2023-03-29T18:31:08.094Z,58.98
2023-03-29T18:33:36.667Z,58.50
2023-03-29T18:34:46.710Z,58.47
2023-03-29T18:37:14.069Z,58.80
2023-03-29T18:38:22.739Z,58.79
2023-03-29T18:40:50.087Z,58.71
2023-03-29T18:43:14.770Z,58.70
2023-03-29T18:46:00.567Z,58.76
2023-03-29T18:48:25.082Z,59.10
2023-03-29T18:50:50.838Z,58.76
2023-03-29T18:53:16.999Z,58.71
2023-03-29T18:54:25.992Z,59.19
2023-03-29T18:55:35.190Z,59.13
2023-03-29T18:58:05.433Z,59.19
2023-03-29T19:00:29.568Z,58.64
2023-03-29T19:02:54.319Z,58.72
2023-03-29T19:04:04.280Z,58.91
2023-03-29T19:05:13.381Z,58.78
2023-03-29T19:07:38.251Z,59.17
2023-03-29T19:10:04.299Z,58.67
2023-03-29T19:11:15.884Z,58.78
2023-03-29T19:12:24.822Z,58.60
2023-03-29T19:13:35.553Z,58.82
2023-03-29T19:14:44.407Z,58.75
2023-03-29T19:15:54.209Z,58.71
2023-03-29T19:17:03.412Z,58.61
2023-03-29T19:18:12.361Z,58.29
2023-03-29T19:19:23.729Z,58.09
2023-03-29T19:21:50.678Z,58.34
2023-03-29T19:24:15.153Z,58.33
2023-03-29T19:26:40.611Z,58.30
2023-03-29T19:27:50.193Z,58.52
2023-03-29T19:29:00.486Z,58.50
2023-03-29T19:31:27.966Z,58.29
2023-03-29T19:33:51.878Z,58.54
2023-03-29T19:36:16.971Z,58.38
2023-03-29T19:38:43.209Z,58.36
2023-03-29T19:41:10.662Z,57.97
2023-03-29T19:43:37.527Z,58.10
2023-03-29T19:46:10.213Z,57.48
2023-03-29T19:48:34.388Z,57.41
2023-03-29T19:49:45.705Z,57.51
2023-03-29T19:50:55.475Z,57.79
2023-03-29T19:53:20.647Z,57.96
2023-03-29T19:54:30.135Z,57.41
2023-03-29T19:55:39.920Z,57.80
2023-03-29T19:58:06.666Z,58.12
2023-03-29T20:00:32.822Z,57.45
2023-03-29T20:02:59.380Z,57.54
2023-03-29T20:04:08.941Z,57.20
2023-03-29T20:06:33.348Z,56.97
2023-03-29T20:08:59.169Z,56.83
2023-03-29T20:11:24.563Z,57.18
2023-03-29T20:12:33.304Z,57.20
2023-03-29T20:13:44.772Z,57.26
2023-03-29T20:14:53.950Z,57.23
2023-03-29T20:16:03.158Z,57.51
2023-03-29T20:18:27.805Z,57.20
2023-03-29T20:20:52.677Z,57.23
2023-03-29T20:22:02.226Z,57.00
2023-03-29T20:24:27.795Z,56.99
2023-03-29T20:26:52.566Z,56.60
2023-03-29T20:28:02.172Z,56.73
2023-03-29T20:30:26.611Z,57.09
2023-03-29T20:31:35.438Z,57.29
2023-03-29T20:34:00.678Z,57.03
2023-03-29T20:36:28.820Z,56.88
2023-03-29T20:38:56.680Z,56.96
2023-03-29T20:40:08.573Z,56.80
2023-03-29T20:41:19.221Z,56.81
2023-03-29T20:43:47.768Z,57.03
2023-03-29T20:46:24.514Z,56.93
2023-03-29T20:47:36.480Z,56.78
2023-03-29T20:48:55.494Z,56.79
2023-03-29T20:50:09.113Z,56.88
2023-03-29T20:52:36.014Z,56.37
2023-03-29T20:55:02.329Z,56.94
2023-03-29T20:56:12.822Z,57.04
2023-03-29T20:58:38.939Z,57.34
2023-03-29T21:01:12.851Z,57.53
2023-03-29T21:03:40.147Z,57.71
2023-03-29T21:06:09.074Z,57.84
2023-03-29T21:07:20.133Z,57.73
2023-03-29T21:08:30.643Z,57.80
2023-03-29T21:10:57.932Z,57.28
2023-03-29T21:13:22.714Z,57.75
2023-03-29T21:14:32.875Z,57.74
2023-03-29T21:17:00.068Z,57.41
2023-03-29T21:18:09.136Z,57.58
2023-03-29T21:19:18.720Z,57.60
2023-03-29T21:21:44.810Z,57.42
2023-03-29T21:22:53.398Z,57.39
2023-03-29T21:25:18.737Z,57.01
2023-03-29T21:26:28.406Z,56.96
2023-03-29T21:27:38.093Z,56.87
2023-03-29T21:28:48.544Z,56.96
2023-03-29T21:31:13.403Z,56.66
2023-03-29T21:32:22.092Z,56.96
2023-03-29T21:33:31.222Z,56.66
2023-03-29T21:36:16.144Z,56.55
2023-03-29T21:37:26.896Z,56.73
2023-03-29T21:38:37.316Z,57.00
2023-03-29T21:41:03.698Z,56.46
2023-03-29T21:43:29.104Z,56.83
2023-03-29T21:45:53.427Z,56.76
2023-03-29T21:47:02.205Z,56.41
2023-03-29T21:48:11.544Z,56.65
2023-03-29T21:50:36.805Z,56.86
2023-03-29T21:51:47.026Z,56.86
2023-03-29T21:52:55.739Z,56.72
2023-03-29T21:54:05.986Z,56.80
2023-03-29T21:56:30.342Z,56.98
2023-03-29T21:58:56.888Z,57.24
2023-03-29T22:00:10.537Z,57.23
2023-03-29T22:02:35.139Z,57.17
2023-03-29T22:05:07.642Z,57.29
2023-03-29T22:06:18.992Z,57.53
2023-03-29T22:07:28.174Z,57.23
2023-03-29T22:09:58.791Z,57.45
2023-03-29T22:12:29.733Z,57.21
2023-03-29T22:14:53.313Z,57.54
2023-03-29T22:17:19.189Z,57.31
2023-03-29T22:19:49.201Z,57.12
2023-03-29T22:22:14.386Z,57.36
2023-03-29T22:24:42.759Z,57.41
2023-03-29T22:27:07.750Z,57.32
2023-03-29T22:28:16.473Z,57.34
2023-03-29T22:30:40.880Z,57.74
2023-03-29T22:33:05.312Z,57.88
2023-03-29T22:34:13.999Z,57.89
2023-03-29T22:35:23.230Z,57.71
2023-03-29T22:36:33.705Z,57.83
2023-03-29T22:39:00.805Z,57.88
2023-03-29T22:41:27.929Z,58.15
2023-03-29T22:42:37.620Z,58.08
2023-03-29T22:43:48.270Z,58.11
2023-03-29T22:46:14.417Z,57.85
2023-03-29T22:47:35.718Z,58.07
2023-03-29T22:50:02.090Z,58.15
2023-03-29T22:51:10.952Z,57.88
2023-03-29T22:52:20.405Z,57.84
2023-03-29T22:53:29.111Z,58.24
2023-03-29T22:55:55.984Z,58.16
2023-03-29T22:58:21.958Z,58.51
2023-03-29T22:59:30.770Z,58.13
2023-03-29T23:00:40.329Z,58.16
2023-03-29T23:03:06.061Z,57.96
2023-03-29T23:05:30.852Z,58.31
2023-03-29T23:07:56.498Z,57.96
2023-03-29T23:10:22.273Z,57.98
2023-03-29T23:11:32.004Z,58.19
2023-03-29T23:12:43.445Z,57.80
2023-03-29T23:13:53.183Z,58.34
2023-03-29T23:16:21.648Z,58.35
2023-03-29T23:18:47.583Z,58.25
2023-03-29T23:19:56.505Z,58.30
2023-03-29T23:22:22.074Z,58.54
2023-03-29T23:23:32.291Z,58.47
2023-03-29T23:24:43.277Z,58.51
2023-03-29T23:25:53.768Z,58.19
2023-03-29T23:28:25.193Z,58.27
2023-03-29T23:31:00.413Z,58.08
2023-03-29T23:32:11.684Z,58.31
2023-03-29T23:33:21.939Z,58.20
2023-03-29T23:34:33.671Z,58.13
2023-03-29T23:35:43.586Z,58.42
2023-03-29T23:36:53.317Z,58.04
2023-03-29T23:39:17.720Z,58.03
2023-03-29T23:41:42.985Z,58.14
2023-03-29T23:44:11.400Z,58.22
2023-03-29T23:45:20.028Z,58.04
2023-03-29T23:46:29.705Z,58.07
2023-03-29T23:48:55.226Z,58.07
2023-03-29T23:51:23.015Z,58.11
2023-03-29T23:52:34.808Z,57.71
2023-03-29T23:53:43.856Z,57.81
2023-03-29T23:54:53.103Z,57.76
2023-03-29T23:56:05.258Z,57.82
2023-03-29T23:58:33.804Z,58.36
2023-03-29T23:59:43.664Z,58.31
